Airfield :
LOGIN :

Register | Disclaimer

   EN    FR    IT 

 










Legend :    VFR   Marginal VFR   IFR   Intensive IFR   Very Intensive IFR
Visi :
Ceiling :
>= 8 km
>= 3000ft
5 to 8 km
1000 to 3000 ft
1500m to 5 km
500 to 1000 ft
800 to 1500m
200 to 500 ft
< 800m
< 200 ft
Symbols :   Thunderstorms  Fog  Heavy snow  Heavy precipitations  Wind > 20 kt
SIGMETs :     Misc.  Thunderstorms  Icing  Turbulence  Mountain Waves  Volcanic Ashes






- Airport Elevation : 52 ft
- IATA code : IOM


EGNS - Isle of Man

CURRENT METAR :
  • 242350Z 22014KT 0500 FG BKN000 OVC001 15/15 Q1010

EXPIRED METARs :
  • 242250Z 23011KT 0500 FG BKN001 OVC002 15/15 Q1010
  • 242150Z 22015KT 0800 FG BKN001 OVC002 15/15 Q1010
  • 242050Z 21018KT 6000 OVC003 15/15 Q1011
  • 241950Z 20018KT 6000 OVC004 15/15 Q1011

Expired Forecast.



MET'MAP, your aeronautical weather chart ! - Copyright ORBIFLY December 2007 - Disclaimer

ORBIFLY MET'MAP TEAM :

Programming & Development : Alexandra Zaïnal
Original concept : Baudouin d'Aumeries
Technical & hardware support : Manuel Goepfert
Assistance : Marc-Olivier Méhu




SOURCES & CREDITS :

   NOAA